Time;durP1;ratioP1;P1;durP2;ratioP2;P2;SDS_P1;SDS_P2;PMS_P1;PMS_P2;Temp;Humidity;BMP_temperature;BMP_pressure;BME280_temperature;BME280_humidity;BME280_pressure;Samples;Min_cycle;Max_cycle;Signal;HPM_P1;HPM_P2
2023/01/05 00:00:17;;;;;;;6.13;2.30;;;;;;;17.20;63.10;97341.72;10377371;28;21247;-27
2023/01/05 00:05:17;;;;;;;5.07;2.60;;;;;;;17.18;63.10;97325.69;10382989;28;20111;-27
2023/01/05 00:26:13;;;;;;;4.93;2.03;;;;;;;17.14;63.52;97319.72;10374083;28;20062;-26
2023/01/05 00:31:14;;;;;;;2.60;1.80;;;;;;;17.13;63.31;97318.03;10390019;28;20409;-26
2023/01/05 00:36:14;;;;;;;3.78;2.30;;;;;;;17.13;63.34;97312.09;10378945;28;20042;-27
2023/01/05 00:41:14;;;;;;;3.50;1.77;;;;;;;17.13;63.17;97312.09;10390768;28;20038;-27
2023/01/05 00:46:15;;;;;;;5.23;1.80;;;;;;;17.13;63.15;97317.16;10386561;28;20114;-26
2023/01/05 00:51:15;;;;;;;6.20;3.00;;;;;;;17.12;63.31;97320.53;10380068;28;20490;-27
2023/01/05 00:56:15;;;;;;;5.47;2.17;;;;;;;17.10;63.92;97327.25;10378781;28;20081;-27
2023/01/05 01:01:16;;;;;;;4.53;1.87;;;;;;;17.18;63.98;97330.75;10383537;28;20034;-27
2023/01/05 01:06:17;;;;;;;3.60;1.50;;;;;;;17.15;62.96;97318.06;10379444;28;20088;-25
2023/01/05 01:11:17;;;;;;;3.88;2.05;;;;;;;17.16;63.17;97353.47;10374061;28;20151;-25
2023/01/05 01:16:19;;;;;;;3.35;1.75;;;;;;;17.16;63.29;97347.59;10395888;28;20033;-26
2023/01/05 01:21:19;;;;;;;2.92;1.98;;;;;;;17.13;63.62;97339.94;10368069;28;20401;-26
2023/01/05 01:26:20;;;;;;;3.17;1.90;;;;;;;17.10;63.56;97333.19;10383266;28;20464;-25
2023/01/05 01:31:20;;;;;;;4.07;2.15;;;;;;;17.09;63.25;97338.19;10389332;28;20284;-25
2023/01/05 01:36:21;;;;;;;4.73;1.90;;;;;;;17.10;63.47;97322.19;10369449;28;20048;-26
2023/01/05 01:41:21;;;;;;;3.78;1.55;;;;;;;17.07;63.49;97348.28;10387370;28;20490;-27
2023/01/05 01:46:24;;;;;;;2.85;1.67;;;;;;;17.07;63.71;97319.63;10381405;28;20357;-26
2023/01/05 01:51:43;;;;;;;5.85;1.52;;;;;;;17.06;63.44;97321.28;10375771;28;20073;-27
2023/01/05 01:56:54;;;;;;;4.05;2.10;;;;;;;17.06;63.51;97326.34;10367139;28;20252;-26
2023/01/05 02:01:58;;;;;;;4.43;1.60;;;;;;;17.05;63.64;97329.72;10364211;28;20032;-27
2023/01/05 02:07:00;;;;;;;2.70;1.63;;;;;;;17.08;64.02;97331.44;10379960;28;20068;-26
2023/01/05 02:12:07;;;;;;;6.15;2.28;;;;;;;17.11;65.07;97319.69;10380202;28;20482;-27
2023/01/05 02:17:44;;;;;;;2.40;1.58;;;;;;;17.12;65.14;97313.81;10362073;28;20030;-27
2023/01/05 02:23:16;;;;;;;3.53;1.85;;;;;;;17.09;64.11;97296.03;10363089;28;20084;-26
2023/01/05 02:28:20;;;;;;;3.13;1.52;;;;;;;17.07;64.13;97304.44;10377582;28;20029;-26
2023/01/05 02:33:42;;;;;;;2.70;1.50;;;;;;;17.07;64.16;97306.97;10376966;28;20456;-27
2023/01/05 02:39:19;;;;;;;3.50;1.42;;;;;;;17.07;63.78;97287.56;10368222;28;20017;-26
2023/01/05 02:44:22;;;;;;;2.90;1.50;;;;;;;17.07;63.96;97296.84;10400030;28;20138;-27
2023/01/05 02:49:29;;;;;;;4.20;2.28;;;;;;;17.03;64.18;97284.97;10362598;28;20142;-25
2023/01/05 02:54:36;;;;;;;2.22;1.25;;;;;;;16.99;64.30;97273.13;10372281;28;20408;-26
2023/01/05 02:59:43;;;;;;;3.38;1.83;;;;;;;17.03;64.13;97274.84;10378144;28;20120;-25
2023/01/05 03:04:49;;;;;;;1.98;1.50;;;;;;;17.04;64.01;97282.47;10360831;28;20036;-27
2023/01/05 03:09:51;;;;;;;2.90;1.83;;;;;;;17.01;64.19;97281.59;10378329;28;20037;-25
2023/01/05 03:14:58;;;;;;;4.82;2.20;;;;;;;17.03;64.17;97284.97;10387417;28;20061;-25
2023/01/05 03:20:00;;;;;;;3.33;1.30;;;;;;;17.02;63.71;97290.88;10372410;28;20030;-27
2023/01/05 03:35:55;;;;;;;2.67;1.50;;;;;;;17.08;63.72;97290.97;10370155;28;20032;-27
2023/01/05 03:40:59;;;;;;;2.10;1.27;;;;;;;17.07;63.99;97287.56;10379427;28;20052;-26
2023/01/05 03:45:59;;;;;;;2.42;1.30;;;;;;;17.06;64.09;97274.91;10382527;28;20029;-25
2023/01/05 03:51:01;;;;;;;2.67;1.52;;;;;;;17.05;63.77;97288.38;10380707;28;20423;-26
2023/01/05 03:56:03;;;;;;;2.53;1.42;;;;;;;17.05;63.68;97298.50;10392647;28;20064;-26
2023/01/05 04:01:04;;;;;;;2.25;1.23;;;;;;;17.03;63.72;97311.13;10381872;28;20191;-26
2023/01/05 04:06:06;;;;;;;1.58;1.00;;;;;;;17.02;64.08;97294.25;10377657;28;20053;-26
2023/01/05 04:11:12;;;;;;;1.92;1.48;;;;;;;17.03;63.75;97288.38;10385214;28;20038;-26
2023/01/05 04:16:13;;;;;;;1.13;1.00;;;;;;;17.04;63.86;97286.69;10382463;28;20037;-28
2023/01/05 04:21:15;;;;;;;2.45;1.15;;;;;;;17.04;63.74;97279.09;10387136;28;20044;-25
2023/01/05 04:26:16;;;;;;;1.92;1.15;;;;;;;17.01;64.20;97274.84;10382747;28;20030;-25
2023/01/05 04:31:21;;;;;;;2.28;0.80;;;;;;;17.03;63.51;97270.66;10369968;28;20513;-25
2023/01/05 04:36:24;;;;;;;2.60;1.10;;;;;;;17.06;65.18;97269.88;10375716;28;20115;-25
2023/01/05 04:41:25;;;;;;;2.55;1.35;;;;;;;17.08;65.28;97273.25;10378382;28;20033;-26
2023/01/05 04:46:27;;;;;;;2.85;0.90;;;;;;;17.08;63.69;97255.56;10379375;28;20091;-26
2023/01/05 04:51:29;;;;;;;2.95;1.48;;;;;;;17.06;64.23;97269.88;10377143;28;20121;-26
2023/01/05 04:56:30;;;;;;;1.95;1.10;;;;;;;17.06;64.21;97269.88;10375352;28;20038;-27
2023/01/05 05:01:30;;;;;;;2.08;0.95;;;;;;;17.07;64.24;97279.97;10377201;28;20030;-27
2023/01/05 05:06:34;;;;;;;2.15;1.10;;;;;;;17.07;63.81;97277.47;10385340;28;20397;-27
2023/01/05 05:11:34;;;;;;;5.07;1.17;;;;;;;17.08;63.71;97284.22;10393058;28;20502;-25
2023/01/05 05:16:35;;;;;;;2.65;1.30;;;;;;;17.12;63.14;97269.94;10372297;28;20026;-26
2023/01/05 05:21:37;;;;;;;2.47;1.08;;;;;;;17.13;63.89;97274.16;10365740;28;20025;-27
2023/01/05 05:26:38;;;;;;;2.05;1.30;;;;;;;17.09;63.63;97274.97;10380175;28;20078;-26
2023/01/05 05:31:38;;;;;;;2.00;1.13;;;;;;;17.10;63.23;97271.59;10382889;28;20506;-27
2023/01/05 05:36:39;;;;;;;5.38;1.33;;;;;;;17.14;62.68;97291.91;10386484;28;20405;-26
2023/01/05 05:41:39;;;;;;;3.85;1.20;;;;;;;17.17;62.97;97283.50;10370247;28;20037;-27
2023/01/05 05:46:40;;;;;;;1.45;1.00;;;;;;;17.18;62.33;97297.84;10381227;28;20087;-27
2023/01/05 05:51:40;;;;;;;2.57;1.00;;;;;;;17.19;63.11;97297.03;10383410;28;20033;-26
2023/01/05 05:56:40;;;;;;;3.07;1.30;;;;;;;17.22;62.67;97302.13;10365008;28;20030;-28
2023/01/05 06:01:41;;;;;;;8.90;1.83;;;;;;;17.22;62.87;97297.91;10384606;28;20295;-27
2023/01/05 06:06:41;;;;;;;5.10;1.27;;;;;;;17.20;63.30;97318.97;10392007;28;20056;-26
2023/01/05 06:11:41;;;;;;;5.30;1.10;;;;;;;17.19;63.09;97314.72;10383246;28;20323;-26
2023/01/05 06:16:42;;;;;;;10.95;1.23;;;;;;;17.16;63.37;97309.63;10380852;28;20037;-26
2023/01/05 06:21:42;;;;;;;5.05;2.15;;;;;;;17.17;62.30;97313.88;10389002;28;20400;-27
2023/01/05 06:26:44;;;;;;;8.83;1.40;;;;;;;17.13;63.30;97322.22;10381382;28;20033;-25
2023/01/05 06:31:44;;;;;;;4.00;1.05;;;;;;;17.13;63.28;97324.75;10376399;28;20296;-26
2023/01/05 06:36:45;;;;;;;2.80;1.40;;;;;;;17.11;63.73;97314.63;10379609;28;20029;-26
2023/01/05 06:41:45;;;;;;;3.27;1.57;;;;;;;17.11;63.51;97318.84;10376763;28;20075;-25
2023/01/05 06:46:45;;;;;;;4.33;1.53;;;;;;;17.09;63.92;97326.38;10384401;28;20033;-25
2023/01/05 06:51:46;;;;;;;2.40;0.97;;;;;;;17.10;63.35;97327.25;10376790;28;20887;-24
2023/01/05 06:56:46;;;;;;;2.73;1.27;;;;;;;17.08;63.63;97327.22;10377208;28;20037;-27
2023/01/05 07:01:46;;;;;;;2.20;1.33;;;;;;;17.09;63.88;97333.97;10379848;28;20037;-25
2023/01/05 07:06:47;;;;;;;1.43;0.80;;;;;;;17.10;64.28;97335.72;10390008;28;20034;-27
2023/01/05 07:11:47;;;;;;;2.77;1.00;;;;;;;17.12;63.70;97330.66;10376510;28;20092;-25
2023/01/05 07:16:47;;;;;;;2.57;1.07;;;;;;;17.10;63.38;97344.97;10369843;28;20026;-25
2023/01/05 07:21:48;;;;;;;2.60;1.23;;;;;;;17.08;63.22;97339.03;10390528;28;20092;-26
2023/01/05 07:26:49;;;;;;;1.93;0.83;;;;;;;17.08;63.37;97328.91;10387649;28;20037;-25
2023/01/05 07:31:51;;;;;;;0.95;0.85;;;;;;;17.07;63.68;97348.28;10383743;28;20037;-27
2023/01/05 07:36:53;;;;;;;2.53;0.77;;;;;;;17.08;63.59;97349.16;10377891;28;20073;-28
2023/01/05 07:41:54;;;;;;;1.35;0.90;;;;;;;17.08;63.64;97359.28;10375148;28;20104;-26
2023/01/05 07:46:58;;;;;;;1.63;0.75;;;;;;;17.08;63.46;97356.75;10385817;28;20036;-26
2023/01/05 07:51:58;;;;;;;3.00;1.00;;;;;;;17.06;63.44;97363.47;10374261;28;20387;-27
2023/01/05 07:56:59;;;;;;;1.20;0.90;;;;;;;17.06;63.72;97373.59;10385514;28;20132;-25
2023/01/05 08:01:59;;;;;;;1.40;0.70;;;;;;;17.06;63.28;97381.19;10398186;28;20038;-25
2023/01/05 08:07:01;;;;;;;2.33;0.80;;;;;;;17.05;63.56;97369.31;10378870;28;20038;-26
2023/01/05 08:12:01;;;;;;;2.28;0.88;;;;;;;17.05;63.28;97392.09;10380355;28;20037;-27
2023/01/05 08:17:01;;;;;;;1.00;0.63;;;;;;;17.10;63.96;97395.56;10361102;28;20031;-26
2023/01/05 08:22:02;;;;;;;2.53;0.93;;;;;;;17.10;63.89;97398.09;10391948;28;20486;-27
2023/01/05 08:27:02;;;;;;;4.17;1.17;;;;;;;17.14;62.36;97399.84;10389457;28;20501;-26
2023/01/05 08:32:03;;;;;;;7.78;1.27;;;;;;;17.10;63.76;97418.31;10387139;28;20040;-25
2023/01/05 08:37:03;;;;;;;4.28;1.00;;;;;;;17.08;63.86;97409.88;10375700;28;20124;-25
2023/01/05 08:42:04;;;;;;;6.90;1.70;;;;;;;17.10;63.31;97415.78;10390825;28;20041;-25
2023/01/05 08:47:04;;;;;;;4.30;1.17;;;;;;;17.12;62.74;97421.72;10371392;28;20493;-26
2023/01/05 08:52:06;;;;;;;3.73;0.97;;;;;;;17.13;63.32;97420.91;10364087;28;20434;-25
2023/01/05 08:57:06;;;;;;;1.80;1.00;;;;;;;17.14;61.86;97433.59;10369797;28;20284;-27
2023/01/05 09:02:10;;;;;;;8.43;1.07;;;;;;;17.10;62.83;97441.97;10369367;28;20026;-25
2023/01/05 09:07:10;;;;;;;3.55;1.05;;;;;;;17.11;63.21;97455.44;10382023;28;20056;-25
2023/01/05 09:12:11;;;;;;;5.07;1.13;;;;;;;17.09;63.26;97469.75;10378696;28;20076;-25
2023/01/05 09:17:11;;;;;;;3.40;0.77;;;;;;;17.09;63.00;97487.47;10364758;28;20516;-26
2023/01/05 09:22:11;;;;;;;2.93;0.90;;;;;;;17.08;62.63;97495.88;10381404;28;20053;-26
2023/01/05 09:27:12;;;;;;;0.90;0.70;;;;;;;17.11;62.75;97506.03;10376041;28;20033;-25
2023/01/05 09:32:12;;;;;;;5.00;1.40;;;;;;;17.17;62.10;97509.53;10373481;28;20033;-27
2023/01/05 09:37:13;;;;;;;8.00;1.93;;;;;;;17.20;61.04;97508.75;10365139;28;20133;-27
2023/01/05 09:42:18;;;;;;;2.50;1.38;;;;;;;17.13;61.21;97502.72;10367928;28;20030;-27
2023/01/05 09:47:36;;;;;;;4.95;2.05;;;;;;;17.13;62.38;97519.56;10358806;28;20045;-26
2023/01/05 09:52:36;;;;;;;4.78;1.83;;;;;;;17.12;61.23;97502.69;10354695;28;20410;-26
2023/01/05 09:57:37;;;;;;;7.40;2.40;;;;;;;17.11;62.55;97501.84;10370460;28;20045;-26
2023/01/05 10:02:50;;;;;;;6.55;2.67;;;;;;;17.10;62.94;97504.34;10360748;28;20121;-26
2023/01/05 10:07:56;;;;;;;8.55;2.67;;;;;;;17.10;62.68;97501.81;10363669;28;20387;-26
2023/01/05 10:13:05;;;;;;;4.20;2.60;;;;;;;17.08;63.03;97485.75;10364455;28;20038;-26
2023/01/05 10:18:21;;;;;;;4.68;2.53;;;;;;;17.08;63.14;97485.75;10361622;28;20144;-25
2023/01/05 10:23:34;;;;;;;5.40;2.22;;;;;;;17.03;63.21;97487.34;10355980;28;20060;-26
2023/01/05 10:29:01;;;;;;;5.95;2.88;;;;;;;17.02;62.67;97473.88;10355113;28;20053;-25
2023/01/05 10:34:20;;;;;;;3.65;2.22;;;;;;;17.06;63.17;97479.84;10377286;28;20057;-26
2023/01/05 10:39:51;;;;;;;7.53;2.60;;;;;;;17.08;63.11;97473.13;10352639;28;20030;-27
2023/01/05 10:44:58;;;;;;;6.65;2.03;;;;;;;17.20;63.37;97468.25;10370758;28;20037;-25
2023/01/05 10:50:00;;;;;;;;;;;;;;;17.28;61.88;97469.22;10376264;28;20030;-26
2023/01/05 10:55:00;;;;;;;6.60;1.80;;;;;;;17.27;60.80;97459.94;10373943;28;19917;-27
2023/01/05 11:00:06;;;;;;;8.90;2.50;;;;;;;17.38;61.21;97455.94;10371022;28;20430;-27
2023/01/05 11:05:10;;;;;;;11.70;2.45;;;;;;;17.43;62.54;97450.13;10365716;28;20414;-27
2023/01/05 11:10:20;;;;;;;9.55;2.70;;;;;;;17.48;61.76;97452.75;10369025;28;20418;-25
2023/01/05 11:15:20;;;;;;;5.10;2.20;;;;;;;17.53;61.96;97451.09;10377195;28;20060;-25
2023/01/05 11:20:21;;;;;;;7.03;2.08;;;;;;;17.50;61.86;97448.53;10363609;28;20077;-26
2023/01/05 11:25:30;;;;;;;9.80;2.40;;;;;;;17.55;62.60;97444.38;10374652;28;20112;-26
2023/01/05 11:30:32;;;;;;;2.88;1.80;;;;;;;17.49;64.22;97439.25;10356249;28;20113;-27
2023/01/05 11:35:36;;;;;;;7.93;2.40;;;;;;;17.43;62.37;97440.00;10357347;28;20406;-27
2023/01/05 11:40:42;;;;;;;8.98;2.40;;;;;;;17.44;62.02;97440.84;10365782;28;20033;-28
2023/01/05 11:45:50;;;;;;;5.03;2.10;;;;;;;17.43;63.07;97436.63;10368229;28;20052;-28
2023/01/05 11:50:53;;;;;;;10.43;2.00;;;;;;;17.44;62.89;97423.13;10368131;28;20112;-26
2023/01/05 11:56:21;;;;;;;7.30;2.10;;;;;;;17.49;65.15;97424.88;10371696;28;20037;-27
2023/01/05 12:01:53;;;;;;;6.40;2.10;;;;;;;17.53;63.70;97418.19;10370790;28;20061;-26
2023/01/05 12:07:29;;;;;;;5.03;1.80;;;;;;;17.46;62.66;97424.84;10355905;28;20161;-25
2023/01/05 12:12:47;;;;;;;5.03;1.75;;;;;;;17.47;63.69;97413.03;10372645;28;20457;-26
2023/01/05 12:18:12;;;;;;;4.70;1.55;;;;;;;17.48;62.74;97410.53;10362206;28;20129;-26
2023/01/05 12:23:18;;;;;;;8.40;1.50;;;;;;;17.47;62.50;97413.03;10370623;28;20037;-27
2023/01/05 12:28:29;;;;;;;5.90;1.70;;;;;;;17.48;62.42;97412.22;10371840;28;20034;-28
2023/01/05 12:33:50;;;;;;;8.38;2.20;;;;;;;17.48;65.78;97402.09;10371012;28;20060;-26
2023/01/05 12:39:04;;;;;;;5.93;2.28;;;;;;;17.43;64.89;97403.72;10364673;28;20040;-25
2023/01/05 12:44:22;;;;;;;6.03;2.08;;;;;;;17.41;63.21;97402.84;10372303;28;20042;-25
2023/01/05 12:49:32;;;;;;;8.15;1.80;;;;;;;17.44;62.34;97400.34;10368142;28;20044;-27
2023/01/05 12:55:00;;;;;;;8.77;2.00;;;;;;;17.45;61.37;97402.91;10376881;28;20087;-27
2023/01/05 13:00:07;;;;;;;5.55;2.05;;;;;;;17.45;61.07;97399.50;10375795;28;20060;-28
2023/01/05 13:05:31;;;;;;;6.65;2.30;;;;;;;17.48;62.95;97397.88;10361196;28;20034;-26
2023/01/05 13:11:08;;;;;;;7.57;3.65;;;;;;;17.53;64.85;97405.53;10361793;28;20372;-25
2023/01/05 13:16:16;;;;;;;4.95;2.10;;;;;;;17.54;61.89;97402.16;10364920;28;20029;-26
2023/01/05 13:21:18;;;;;;;6.45;1.80;;;;;;;17.53;60.72;97395.41;10378979;28;20029;-26
2023/01/05 13:26:21;;;;;;;4.45;2.00;;;;;;;17.50;60.12;97400.44;10369443;28;20038;-25
2023/01/05 13:31:29;;;;;;;6.53;1.83;;;;;;;17.49;60.16;97401.28;10366250;28;20042;-28
2023/01/05 13:36:59;;;;;;;5.22;1.70;;;;;;;17.49;59.94;97398.75;10366973;28;20030;-26
2023/01/05 13:42:45;;;;;;;5.53;1.95;;;;;;;17.48;59.85;97397.03;10362517;28;20022;-26
2023/01/05 13:48:04;;;;;;;4.25;1.88;;;;;;;17.43;59.98;97393.56;10362658;28;20041;-26
2023/01/05 13:53:07;;;;;;;2.90;1.98;;;;;;;17.45;60.01;97394.44;10366764;28;20038;-27
2023/01/05 13:58:31;;;;;;;4.93;2.88;;;;;;;17.46;60.35;97397.00;10366143;28;20025;-27
2023/01/05 14:03:36;;;;;;;4.85;2.03;;;;;;;17.44;61.04;97392.75;10366813;28;20037;-27
2023/01/05 14:08:39;;;;;;;5.35;2.10;;;;;;;17.41;62.58;97400.31;10341974;28;20062;-26
2023/01/05 14:13:43;;;;;;;7.93;2.92;;;;;;;17.43;61.35;97399.50;10362973;28;20052;-27
2023/01/05 14:18:51;;;;;;;8.77;3.28;;;;;;;17.50;63.08;97401.28;10376700;28;20025;-26
2023/01/05 14:23:56;;;;;;;9.77;2.65;;;;;;;17.55;65.02;97403.88;10364524;28;20039;-26
2023/01/05 14:28:57;;;;;;;4.22;2.22;;;;;;;17.56;61.28;97411.50;10361679;28;20124;-26
2023/01/05 14:34:02;;;;;;;3.87;2.10;;;;;;;17.54;60.42;97412.28;10371860;28;20041;-28
2023/01/05 14:39:17;;;;;;;5.22;2.10;;;;;;;17.48;60.64;97410.53;10363184;28;20037;-27
2023/01/05 14:44:28;;;;;;;3.92;2.20;;;;;;;17.50;59.77;97419.00;10365174;28;20034;-26
2023/01/05 14:50:02;;;;;;;6.03;2.28;;;;;;;17.47;59.94;97425.69;10360631;28;20089;-26
2023/01/05 14:55:02;;;;;;;4.43;1.77;;;;;;;17.46;59.85;97427.38;10371012;28;20562;-26
2023/01/05 15:00:06;;;;;;;5.28;1.70;;;;;;;17.45;59.44;97433.28;10369240;28;20084;-26
2023/01/05 15:05:13;;;;;;;5.63;2.03;;;;;;;17.38;60.94;97430.63;10372867;28;20041;-26
2023/01/05 15:10:32;;;;;;;;;;;;;;;17.16;59.36;97429.38;10357314;28;20025;-25
2023/01/05 15:16:18;;;;;;;4.57;1.70;;;;;;;17.29;59.63;97440.56;10362079;28;19924;-26
2023/01/05 15:21:46;;;;;;;5.63;1.83;;;;;;;17.35;61.92;97448.25;10340629;28;20475;-28
2023/01/05 15:27:09;;;;;;;3.20;1.85;;;;;;;17.37;59.21;97446.63;10366193;28;20084;-26
2023/01/05 15:32:22;;;;;;;6.93;2.58;;;;;;;17.44;66.89;97449.31;10360197;28;20038;-27
2023/01/05 15:37:29;;;;;;;5.03;2.50;;;;;;;17.45;66.44;97452.66;10365408;28;20194;-27
2023/01/05 15:42:43;;;;;;;4.07;2.58;;;;;;;17.45;61.05;97456.06;10374541;28;20155;-26
2023/01/05 15:47:45;;;;;;;2.05;1.80;;;;;;;17.44;60.12;97451.84;10368536;28;20037;-27
2023/01/05 15:52:54;;;;;;;6.03;1.50;;;;;;;17.42;59.61;97450.94;10376817;28;20045;-27
2023/01/05 15:58:03;;;;;;;4.60;1.55;;;;;;;17.41;59.35;97453.47;10378096;28;20042;-27
2023/01/05 16:03:40;;;;;;;3.10;1.60;;;;;;;17.41;59.61;97450.94;10368803;28;20033;-26
2023/01/05 16:08:43;;;;;;;4.25;1.85;;;;;;;17.39;59.30;97450.91;10349143;28;20063;-25
2023/01/05 16:13:52;;;;;;;2.78;1.42;;;;;;;17.25;62.56;97456.53;10353972;28;20056;-28
2023/01/05 16:18:58;;;;;;;5.25;1.90;;;;;;;17.34;59.51;97459.22;10358795;28;20029;-27
2023/01/05 16:24:06;;;;;;;3.33;1.88;;;;;;;17.33;59.10;97450.75;10357337;28;20066;-28
2023/01/05 16:29:34;;;;;;;4.13;1.40;;;;;;;17.40;58.96;97454.28;10367430;28;20486;-26
2023/01/05 16:34:35;;;;;;;2.88;1.45;;;;;;;17.42;58.90;97450.09;10369207;28;20037;-26
2023/01/05 16:39:40;;;;;;;4.73;1.43;;;;;;;17.44;59.19;97450.97;10370117;28;20544;-26
2023/01/05 16:44:41;;;;;;;5.97;2.22;;;;;;;17.48;64.86;97458.63;10366866;28;20149;-27
2023/01/05 16:49:42;;;;;;;7.47;2.08;;;;;;;17.54;65.73;97460.41;10368638;28;20065;-26
2023/01/05 16:54:43;;;;;;;5.63;2.17;;;;;;;17.52;63.92;97449.41;10368178;28;20569;-26
2023/01/05 16:59:51;;;;;;;5.90;1.40;;;;;;;17.54;60.27;97457.88;10367958;28;20300;-27
2023/01/05 17:04:51;;;;;;;4.28;1.85;;;;;;;17.53;63.31;97451.09;10359772;28;20105;-25
2023/01/05 17:09:52;;;;;;;2.63;1.60;;;;;;;17.37;60.06;97449.16;10357496;28;20037;-28
2023/01/05 17:14:57;;;;;;;3.88;1.75;;;;;;;17.40;58.84;97461.88;10366409;28;20297;-26
2023/01/05 17:19:57;;;;;;;3.45;1.77;;;;;;;17.39;56.45;97452.56;10362147;28;20513;-26
2023/01/05 17:24:58;;;;;;;4.97;1.60;;;;;;;17.41;59.77;97435.75;10364011;28;20064;-26
2023/01/05 17:29:58;;;;;;;5.33;1.77;;;;;;;17.43;56.68;97440.00;10363001;28;20100;-26
2023/01/05 17:34:58;;;;;;;8.73;2.50;;;;;;;17.51;62.82;97452.78;10368049;28;20120;-26
2023/01/05 17:39:59;;;;;;;7.00;2.23;;;;;;;17.55;60.91;97459.56;10368849;28;20038;-25
2023/01/05 17:44:59;;;;;;;5.73;2.00;;;;;;;17.53;58.00;97446.03;10368452;28;20501;-25
2023/01/05 17:49:59;;;;;;;5.17;1.90;;;;;;;17.53;58.04;97446.03;10362516;28;20038;-26
2023/01/05 17:55:00;;;;;;;6.10;1.50;;;;;;;17.51;60.12;97446.00;10366996;28;20038;-28
2023/01/05 18:00:00;;;;;;;4.50;1.67;;;;;;;17.52;59.22;97460.41;10366500;28;20034;-26
2023/01/05 18:05:01;;;;;;;5.05;1.67;;;;;;;17.52;58.90;97449.41;10370747;28;20490;-25
2023/01/05 18:10:02;;;;;;;3.55;1.27;;;;;;;17.51;58.69;97453.59;10362044;28;20490;-26
2023/01/05 18:15:04;;;;;;;6.57;2.08;;;;;;;17.54;63.06;97453.69;10362858;28;20034;-27
2023/01/05 18:20:06;;;;;;;4.63;2.15;;;;;;;17.52;64.18;97454.47;10367811;28;20065;-27
2023/01/05 18:25:07;;;;;;;4.18;1.75;;;;;;;17.51;64.43;97452.78;10366366;28;20121;-27
2023/01/05 18:30:08;;;;;;;5.88;2.58;;;;;;;17.50;65.48;97453.59;10368210;28;20077;-27
2023/01/05 18:35:09;;;;;;;2.83;1.83;;;;;;;17.58;62.13;97454.56;10365639;28;20112;-28
2023/01/05 18:40:10;;;;;;;2.28;1.42;;;;;;;17.60;59.87;97452.91;10361012;28;20037;-26
2023/01/05 18:45:11;;;;;;;6.88;2.47;;;;;;;17.60;59.81;97451.25;10356539;28;20048;-28
2023/01/05 18:50:11;;;;;;;4.15;1.80;;;;;;;17.62;59.79;97446.19;10359484;28;20516;-27
2023/01/05 18:55:11;;;;;;;6.05;1.73;;;;;;;17.65;59.81;97446.25;10362618;28;20514;-26
2023/01/05 19:00:12;;;;;;;6.80;1.90;;;;;;;17.58;62.17;97445.28;10358504;28;20046;-26
2023/01/05 19:05:13;;;;;;;3.92;1.95;;;;;;;17.61;61.46;97450.41;10349680;28;20045;-26
2023/01/05 19:10:13;;;;;;;13.87;2.47;;;;;;;17.59;61.40;97448.69;10356179;28;20045;-27
2023/01/05 19:15:14;;;;;;;8.90;2.20;;;;;;;17.61;61.34;97447.88;10364417;28;20336;-28
2023/01/05 19:20:14;;;;;;;5.47;2.17;;;;;;;17.61;61.89;97444.47;10372092;28;20033;-27
2023/01/05 19:25:15;;;;;;;4.32;2.17;;;;;;;17.59;61.98;97441.09;10372727;28;20296;-28
2023/01/05 19:30:17;;;;;;;7.27;1.60;;;;;;;17.61;64.81;97440.28;10369566;28;20038;-26
2023/01/05 19:35:17;;;;;;;6.55;2.47;;;;;;;17.59;66.34;97430.94;10369428;28;20303;-26
2023/01/05 19:40:18;;;;;;;15.60;2.78;;;;;;;17.61;64.72;97432.69;10370799;28;20032;-26
2023/01/05 19:45:18;;;;;;;7.90;2.37;;;;;;;17.64;62.70;97436.91;10360193;28;20489;-26
2023/01/05 19:50:19;;;;;;;2.85;1.80;;;;;;;17.64;61.37;97434.38;10369413;28;20038;-27
2023/01/05 19:55:19;;;;;;;5.00;1.67;;;;;;;17.59;61.90;97424.19;10365334;28;20034;-26
2023/01/05 20:00:19;;;;;;;3.20;1.53;;;;;;;17.57;61.13;97430.91;10384714;28;20086;-25
2023/01/05 20:05:20;;;;;;;5.10;1.87;;;;;;;17.54;60.73;97424.97;10364109;28;20045;-26
2023/01/05 20:10:21;;;;;;;5.20;1.63;;;;;;;17.55;60.45;97429.19;10367128;28;20515;-26
2023/01/05 20:15:21;;;;;;;5.88;2.08;;;;;;;17.55;65.19;97425.00;10361203;28;20425;-26
2023/01/05 20:20:21;;;;;;;4.33;1.97;;;;;;;17.54;67.37;97420.75;10367206;28;20045;-26
2023/01/05 20:25:22;;;;;;;5.87;1.70;;;;;;;17.55;65.74;97421.59;10364121;28;20087;-25
2023/01/05 20:30:22;;;;;;;3.70;1.55;;;;;;;17.55;63.01;97417.41;10363745;28;20034;-26
2023/01/05 20:35:23;;;;;;;2.87;1.37;;;;;;;17.57;61.42;97418.25;10366097;28;20510;-24
2023/01/05 20:40:23;;;;;;;3.35;1.63;;;;;;;17.55;61.32;97414.00;10365899;28;20049;-25
2023/01/05 20:45:23;;;;;;;4.20;1.50;;;;;;;17.55;60.34;97411.47;10360603;28;20078;-25
2023/01/05 20:50:24;;;;;;;2.57;1.47;;;;;;;17.55;59.96;97414.00;10367906;28;20042;-26
2023/01/05 20:55:24;;;;;;;3.23;1.60;;;;;;;17.58;60.40;97398.88;10363620;28;20099;-25
2023/01/05 21:00:24;;;;;;;4.73;1.80;;;;;;;17.64;60.75;97404.00;10366859;28;20505;-25
2023/01/05 21:05:25;;;;;;;5.03;1.97;;;;;;;17.68;60.91;97396.47;10365401;28;20030;-25
2023/01/05 21:10:25;;;;;;;2.67;1.70;;;;;;;17.69;60.75;97392.25;10364734;28;20037;-25
2023/01/05 21:15:26;;;;;;;2.50;1.50;;;;;;;17.74;63.04;97399.09;10360334;28;20629;-25
2023/01/05 21:20:27;;;;;;;5.47;1.48;;;;;;;17.78;63.68;97397.44;10362123;28;20492;-26
2023/01/05 21:25:28;;;;;;;6.07;2.07;;;;;;;17.77;62.38;97394.09;10362542;28;20113;-27
2023/01/05 21:30:28;;;;;;;5.63;2.28;;;;;;;17.78;62.35;97397.44;10364224;28;20033;-27
2023/01/05 21:35:29;;;;;;;5.63;1.30;;;;;;;17.76;63.93;97394.06;10369237;28;20420;-27
2023/01/05 21:40:30;;;;;;;3.83;1.80;;;;;;;17.71;63.38;97381.34;10363685;28;20025;-27
2023/01/05 21:45:33;;;;;;;3.05;1.90;;;;;;;17.70;63.26;97379.63;10363014;28;20038;-25
2023/01/05 22:01:11;;;;;;;4.90;1.92;;;;;;;17.67;63.86;97358.47;10357224;28;20049;-26
2023/01/05 22:06:11;;;;;;;3.90;1.70;;;;;;;17.65;64.04;97358.44;10368320;28;20437;-26
2023/01/05 22:11:11;;;;;;;3.23;1.50;;;;;;;17.67;64.88;97355.94;10364693;28;20362;-26
2023/01/05 22:16:12;;;;;;;4.47;2.03;;;;;;;17.66;63.95;97351.72;10360426;28;20037;-25
2023/01/05 22:21:13;;;;;;;2.60;1.65;;;;;;;17.69;66.68;97356.81;10362126;28;20614;-25
2023/01/05 22:26:16;;;;;;;3.95;1.70;;;;;;;17.70;67.19;97354.31;10363884;28;20049;-27
2023/01/05 22:31:23;;;;;;;3.40;1.55;;;;;;;17.71;64.74;97356.00;10366700;28;20050;-30
2023/01/05 22:36:25;;;;;;;6.45;1.90;;;;;;;17.69;64.08;97351.75;10367434;28;20108;-26
2023/01/05 22:41:28;;;;;;;3.22;1.80;;;;;;;17.67;63.33;97354.25;10366142;28;20028;-26
2023/01/05 22:46:29;;;;;;;2.85;1.35;;;;;;;17.66;63.82;97350.03;10366803;28;20044;-26
2023/01/05 22:51:32;;;;;;;2.55;1.48;;;;;;;17.66;62.98;97346.66;10363343;28;20042;-25
2023/01/05 22:56:34;;;;;;;3.17;1.40;;;;;;;17.65;62.15;97344.97;10361669;28;20092;-27
2023/01/05 23:01:37;;;;;;;2.35;1.30;;;;;;;17.64;62.23;97336.50;10363117;28;20366;-26
2023/01/05 23:06:37;;;;;;;1.98;1.00;;;;;;;17.64;61.72;97328.91;10359810;28;20041;-27
2023/01/05 23:11:40;;;;;;;2.47;1.17;;;;;;;17.63;61.21;97332.28;10365207;28;20038;-26
2023/01/05 23:16:41;;;;;;;2.28;1.52;;;;;;;17.61;60.87;97323.81;10358451;28;20030;-25
2023/01/05 23:21:41;;;;;;;1.80;1.40;;;;;;;17.58;61.59;97302.66;10362865;28;20048;-25
2023/01/05 23:26:41;;;;;;;4.78;2.00;;;;;;;17.61;67.57;97310.28;10366346;28;20034;-25
2023/01/05 23:31:42;;;;;;;2.23;1.53;;;;;;;17.61;67.56;97302.69;10359660;28;20064;-26
2023/01/05 23:36:42;;;;;;;2.93;1.73;;;;;;;17.61;64.46;97300.16;10365122;28;20040;-27
2023/01/05 23:41:43;;;;;;;3.20;1.40;;;;;;;17.60;61.81;97291.72;10363585;28;20100;-27
2023/01/05 23:46:43;;;;;;;1.63;1.27;;;;;;;17.61;60.77;97290.03;10365075;28;20037;-27
2023/01/05 23:51:43;;;;;;;3.73;1.57;;;;;;;17.56;61.17;97279.00;10364843;28;20478;-26
2023/01/05 23:56:44;;;;;;;4.53;1.60;;;;;;;17.59;60.94;97279.88;10366579;28;20540;-27
